Tiempo atmosférico en la estación meteorológica de Peraleda Del Zaucejo, Badajoz (542 m.)



Fecha
DESCASC
Temp. máxima en grados centígrados (hora)
DESCASC
Temp. mínima en grados centígrados (hora)
DESCASC
Temp. media en grados centígrados
DESCASC
Racha de viento máxima en m/sg (hora)
DESCASC
Velocidad máxima media en intervalos de 10 minutos(hora)
DESCASC
Precipitaciones diarias en mm
DESCASC
Precipitaciones de 00:00 a 06:00 en mm
DESCASC
Precipitaciones de 06:00 a 12:00 en mm
DESCASC
Precipitaciones de 12:00 a 18:00 en mm
DESCASC
Precipitaciones de 18:00 a 24:00 en mm
DESCASC
16-04-2019 23.5 (18:00) 4.1 (08:00) 13.8 9.17 (19:10) 5 (19:10) 0 0 0 0 0
15-04-2019 22.3 (15:20) 8.2 (07:20) 15.2 13.61 (17:50) 8.33 (15:40) 0 0 0 0 0
14-04-2019 22.6 (16:30) 12.4 (00:00) 17.5 6.67 (05:10) 4.17 (05:10) 0 0 0 0 0
13-04-2019 21.7 (18:10) 3.5 (00:00) 12.6 7.78 (16:50) 5.56 (22:10) 0 0 0 0 0
12-04-2019 19.8 (18:10) 2.1 (00:00) 10.9 6.39 (16:10) 3.33 (16:10) 0 0 0 0 0
11-04-2019 17.6 (18:10) 5.7 (00:00) 11.7 9.17 (00:20) 6.39 (00:10) 0 0 0 0 0
10-04-2019 15.1 (18:10) 7 (00:00) 11.1 11.11 (23:50) 7.22 (23:50) 0 0 0 0 0
09-04-2019 14.8 (16:50) 5.4 (00:00) 10.1 16.94 (12:00) 9.72 (12:00) 0.8 0 0 0.2 0.6
08-04-2019 16.3 (17:00) 8.2 (00:00) 12.2 13.61 (21:20) 10 (21:30) 4.6 1.2 3.2 0.2 0
07-04-2019 11.5 (22:20) 6.5 (00:00) 9 11.94 (03:20) 6.67 (03:20) 3.2 0.4 0.2 1 1.6
06-04-2019 11.3 (16:00) 4.8 (00:00) 8.1 19.17 (19:30) 11.94 (19:30) 6.4 0 0.4 1.8 4.2
05-04-2019 11.2 (16:50) 4.9 (00:00) 8 13.61 (19:10) 9.44 (19:10) 10.2 2.4 6.2 0 1.6
04-04-2019 16.2 (16:20) 4.3 (00:00) 10.3 10 (04:40) 6.39 (04:30) 0 0 0 0 0
03-04-2019 17.1 (15:20) 7.1 (00:00) 12.1 11.11 (16:30) 7.22 (16:20) 0 0 0 0 0
02-04-2019 19.7 (17:30) 6 (00:00) 12.9 6.11 (18:10) 4.17 (18:40) 0.2 0 0.2 0 0
01-04-2019 18.3 (18:20) 9 (00:00) 13.6 9.44 (19:30) 6.39 (19:30) 5.4 0 0 0 5.4
31-03-2019 18.6 (16:30) 8.8 (00:00) 13.7 8.06 (15:10) 6.11 (15:50) 0 0 0 0 0
30-03-2019 21 (16:10) 4.3 (00:00) 12.7 8.61 (13:20) 4.72 (14:50) 0 0 0 0 0
29-03-2019 19.7 (16:40) -0.5 (-00:0) 9.6 10 (13:00) 4.72 (13:40) 0 0 0 0 0
28-03-2019 19.5 (16:30) 0.2 (00:00) 9.9 10.83 (15:40) 6.67 (16:00) 0 0 0 0 0
27-03-2019 19.6 (15:30) 3.4 (00:00) 11.5 12.78 (14:30) 7.78 (14:10) 0 0 0 0 0
26-03-2019 23.7 (17:30) 4.9 (00:00) 14.3 12.22 (21:30) 6.67 (11:30) 0 0 0 0 0
25-03-2019 22.1 (16:30) 2.8 (00:00) 12.5 11.39 (15:20) 7.22 (13:50) 0 0 0 0 0
24-03-2019 20.5 (15:00) 2.7 (00:00) 11.6 10.83 (13:20) 5.56 (12:10) 0 0 0 0 0
23-03-2019 20 (16:00) 1.2 (00:00) 10.6 13.06 (11:40) 8.33 (11:50) 0 0 0 0 0
22-03-2019 18.1 (16:50) -1.4 (-00:0) 8.4 10 (16:40) 5.83 (12:50) 0 0 0 0 0
21-03-2019 16.4 (16:20) -0.4 (00:00) 8 11.11 (16:40) 6.94 (12:30) 0 0 0 0 0
20-03-2019 16.2 (16:40) 2.8 (00:00) 9.5 11.11 (10:30) 7.5 (10:00) 0 0 0 0 0
19-03-2019 17 (16:50) 1.1 (00:00) 9.1 10.56 (12:00) 6.67 (12:30) 0 0 0 0 0

Gráficas

Temp. máximas Temp. mínimas Temp. medias Precipitaciones Rachas de viento máximas Velocidades máximas media en intervalos de 10 minutos

Datos horarios

Fecha y hora oficial Temperatura (ºC) Velocidad del viento (km/h) Dirección del viento Racha (km/h) Dirección de racha Precipitación (mm) Presión (hPa) Tendencia (hPa) Humedad (%)
2019-04-17 23:00:00 12.2 10 Sur 24 Sudeste 0 -- -- 72
2019-04-17 22:00:00 12.7 9 Sur 28 Sudoeste 0 -- -- 69
2019-04-17 21:00:00 13.2 17 Sudoeste 40 Oeste 0 -- -- 64
2019-04-17 20:00:00 14.3 20 Oeste 46 Sur 0 -- -- 69
2019-04-17 19:00:00 17 19 Sur 43 Sudoeste 0 -- -- 61
2019-04-17 18:00:00 18.1 23 Sur 46 Sur 0 -- -- 55
2019-04-17 17:00:00 18.5 25 Sur 45 Sudoeste 0 -- -- 55
2019-04-17 16:00:00 19.9 21 Sur 41 Sur 0 -- -- 49
2019-04-17 15:00:00 20.6 22 Sur 39 Sur 0 -- -- 45
2019-04-17 14:00:00 19.4 17 Sur 39 Sur 0 -- -- 47
2019-04-17 13:00:00 18.5 23 Sur 39 Sur 0 -- -- 47
2019-04-17 12:00:00 18.2 24 Sur 44 Sudeste 0 -- -- 47
2019-04-17 11:00:00 16.3 26 Sur 42 Sur 0 -- -- 50
2019-04-17 10:00:00 14.2 7 Sudeste 19 Sur 0 -- -- 56
2019-04-17 09:00:00 12.2 5 Este 14 Sudeste 0 -- -- 67
2019-04-17 08:00:00 12.2 8 Sudeste 31 Sudeste 0 -- -- 64
2019-04-17 07:00:00 12.3 10 Sudeste 30 Sudeste 0 -- -- 64
2019-04-17 06:00:00 12.5 12 Sudeste 23 Sudeste 0 -- -- 64
2019-04-17 05:00:00 12.5 12 Sudeste 29 Sudeste 0 -- -- 64
2019-04-17 04:00:00 13 19 Sudeste 30 Sudeste 0 -- -- 58
2019-04-17 03:00:00 12.8 11 Sudeste 19 Sudeste 0 -- -- 65
2019-04-17 02:00:00 14.3 8 Sudeste 17 Sudeste 0 -- -- 61
2019-04-17 01:00:00 16.2 11 Sudeste 21 Sur 0 -- -- 53
2019-04-17 00:00:00 15.6 9 Sur 14 Sudeste 0 -- -- 54
2019-04-16 23:00:00 15.2 3 Sudeste 21 Sur 0 -- -- 57
2019-04-16 22:00:00 18.4 14 Sur 26 Sur 0 -- -- 45
2019-04-16 21:00:00 19.6 13 Sur 25 Sudeste 0 -- -- 37
2019-04-16 20:00:00 21.6 18 Sur 33 Sudeste 0 -- -- 31
2019-04-16 19:00:00 22.7 18 Sudeste 32 Sudeste 0 -- -- 28
2019-04-16 18:00:00 23.5 14 Sur 32 Sur 0 -- -- 27
2019-04-16 17:00:00 23.1 15 Sur 27 Sur 0 -- -- 32
2019-04-16 16:00:00 22.2 12 Sudeste 26 Sur 0 -- -- 33
2019-04-16 15:00:00 20.9 9 Este 32 Sudeste 0 -- -- 40
2019-04-16 14:00:00 19.9 12 Este 27 Este 0 -- -- 45
2019-04-16 13:00:00 18.6 14 Este 23 Este 0 -- -- 45
2019-04-16 12:00:00 17.4 12 Sudeste 26 Este 0 -- -- 52
2019-04-16 11:00:00 15 9 Este 14 Este 0 -- -- 64
2019-04-16 10:00:00 11.8 0 Calma 4 Norte 0 -- -- 81
2019-04-16 09:00:00 7.3 0 Calma 4 Oeste 0 -- -- 98
2019-04-16 08:00:00 4.1 0 Calma 4 Oeste 0 -- -- 96
2019-04-16 07:00:00 4.5 0 Calma 3 Este 0 -- -- 94
2019-04-16 06:00:00 5.5 0 Calma 6 Oeste 0 -- -- 94
2019-04-16 05:00:00 7.1 0 Calma 10 Sudeste 0 -- -- 90
2019-04-16 04:00:00 8.6 4 Oeste 8 Oeste 0 -- -- 89
2019-04-16 03:00:00 10.1 5 Noroeste 9 Oeste 0 -- -- 83
2019-04-16 02:00:00 11 7 Oeste 14 Oeste 0 -- -- 79
2019-04-16 01:00:00 12.7 9 Oeste 21 Oeste 0 -- -- 72
2019-04-16 00:00:00 13.2 13 Oeste 24 Oeste 0 -- -- 70
2019-04-15 23:00:00 12.5 9 Oeste 18 Sudoeste 0 -- -- 72
2019-04-15 22:00:00 13 10 Oeste 17 Oeste 0 -- -- 71
2019-04-15 21:00:00 15.5 14 Noroeste 26 Noroeste 0 -- -- 63
2019-04-15 20:00:00 16.4 21 Noroeste 36 Oeste 0 -- -- 66
2019-04-15 19:00:00 17 24 Noroeste 40 Noroeste 0 -- -- 67
2019-04-15 18:00:00 19.4 23 Oeste 49 Oeste 0 -- -- 53
2019-04-15 17:00:00 21.7 26 Oeste 46 Oeste 0 -- -- 40
2019-04-15 16:00:00 22 27 Oeste 46 Oeste 0 -- -- 39
2019-04-15 15:00:00 22 22 Oeste 35 Oeste 0 -- -- 42
2019-04-15 14:00:00 21.7 15 Oeste 32 Oeste 0 -- -- 45
2019-04-15 13:00:00 20.7 17 Oeste 28 Oeste 0 -- -- 45
2019-04-15 12:00:00 19.3 18 Sudoeste 31 Sudoeste 0 -- -- 56
2019-04-15 11:00:00 17.6 12 Sudoeste 22 Sudoeste 0 -- -- 67
2019-04-15 10:00:00 13.6 3 Sudoeste 9 Noroeste 0 -- -- 85
2019-04-15 09:00:00 11.4 0 Calma 7 Noroeste 0 -- -- 97
2019-04-15 08:00:00 8.9 2 Noroeste 6 Noroeste 0 -- -- 98
2019-04-15 07:00:00 8.5 2 Oeste 4 Noroeste 0 -- -- 95
2019-04-15 06:00:00 9.7 0 Calma 4 Noroeste 0 -- -- 95
2019-04-15 05:00:00 9.9 4 Noroeste 5 Noroeste 0 -- -- 94
2019-04-15 04:00:00 11.2 0 Calma 6 Oeste 0 -- -- 93
2019-04-15 03:00:00 12.6 0 Calma 5 Oeste 0 -- -- 90
2019-04-15 02:00:00 13.4 0 Calma 3 Noroeste 0 -- -- 90
2019-04-15 01:00:00 13.6 2 Noroeste 4 Noroeste 0 -- -- 89
2019-04-15 00:00:00 14 3 Oeste 5 Oeste 0 -- -- 86
2019-04-14 23:00:00 16 0 Calma -- -- 0 -- -- 80
2019-04-14 22:00:00 16.5 4 Este 6 Este 0 -- -- 80
2019-04-14 21:00:00 18.4 2 Oeste 8 Norte 0 -- -- 72
2019-04-14 20:00:00 21.3 3 Noroeste 14 Noroeste 0 -- -- 60
2019-04-14 19:00:00 22 6 Noroeste 15 Noroeste 0 -- -- 53
2019-04-14 18:00:00 22.4 8 Noroeste 20 Oeste 0 -- -- 51
2019-04-14 17:00:00 22.5 8 Oeste 19 Oeste 0 -- -- 51
2019-04-14 16:00:00 20.9 6 Noroeste 18 Norte 0 -- -- 57
2019-04-14 15:00:00 21.2 5 Sudoeste 17 Sudoeste 0 -- -- 58
2019-04-14 14:00:00 20.1 9 Sur 17 Sur 0 -- -- 61
2019-04-14 13:00:00 18.3 4 Sudeste 11 Sur 0 -- -- 71
2019-04-14 12:00:00 15.3 5 Sudoeste 11 Oeste 0 -- -- 83
2019-04-14 11:00:00 14 3 Noroeste 13 Oeste 0 -- -- 87
2019-04-14 10:00:00 13.5 9 Oeste 13 Oeste 0 -- -- 89
2019-04-14 09:00:00 12.9 4 Oeste 12 Oeste 0 -- -- 92
2019-04-14 08:00:00 12.8 8 Oeste 13 Oeste 0 -- -- 93
2019-04-14 07:00:00 12.8 6 Oeste 9 Oeste 0 -- -- 93
2019-04-14 06:00:00 12.7 8 Noroeste 24 Oeste 0 -- -- 93
2019-04-14 05:00:00 12.6 13 Oeste 24 Oeste 0 -- -- 91
2019-04-14 04:00:00 12.5 8 Norte 13 Norte 0 -- -- 91
2019-04-14 03:00:00 13 8 Oeste 17 Noroeste 0 -- -- 84
2019-04-14 02:00:00 14.1 11 Noroeste 21 Noroeste 0 -- -- 80
2019-04-14 01:00:00 14.6 11 Noroeste 22 Noroeste 0 -- -- 68
2019-04-14 00:00:00 15 12 Noroeste 17 Noroeste 0 -- -- 55
2019-04-13 23:00:00 14.8 6 Noroeste 27 Oeste 0 -- -- 54
2019-04-13 22:00:00 16.5 18 Oeste 27 Oeste 0 -- -- 46
2019-04-13 21:00:00 16.1 6 Noroeste 21 Noroeste 0 -- -- 50
2019-04-13 20:00:00 20.5 12 Noroeste 25 Noroeste 0 -- -- 36
2019-04-13 19:00:00 21.6 12 Oeste 27 Noroeste 0 -- -- 36
2019-04-13 18:00:00 21.6 13 Noroeste 26 Noroeste 0 -- -- 32
2019-04-13 17:00:00 21.3 14 Oeste 28 Oeste 0 -- -- 34
2019-04-13 16:00:00 20.7 12 Oeste 23 Oeste 0 -- -- 35
2019-04-13 15:00:00 20 5 Sur 24 Sudoeste 0 -- -- 35
2019-04-13 14:00:00 19.3 10 Sudoeste 18 Sudoeste 0 -- -- 39
2019-04-13 13:00:00 18.5 7 Sudoeste 19 Oeste 0 -- -- 38
2019-04-13 12:00:00 18.4 7 Norte 13 Nordeste 0 -- -- 39
2019-04-13 11:00:00 15.4 2 Sudeste 5 Este 0 -- -- 62
2019-04-13 10:00:00 10.8 4 Este 6 Este 0 -- -- 74
2019-04-13 09:00:00 5.9 0 Calma 3 Norte 0 -- -- 87
2019-04-13 08:00:00 3.7 0 Calma 3 Nordeste 0 -- -- 93
2019-04-13 07:00:00 3.8 0 Calma 6 Sudoeste 0 -- -- 91
2019-04-13 06:00:00 3.9 2 Sudoeste 6 Este 0 -- -- 89
2019-04-13 05:00:00 4.6 2 Este 5 Este 0 -- -- 86
2019-04-13 04:00:00 4.9 0 Calma 9 Sudoeste 0 -- -- 82
2019-04-13 03:00:00 5.7 0 Calma 2 Norte 0 -- -- 79
2019-04-13 02:00:00 6.3 0 Calma 3 Norte 0 -- -- 77
2019-04-13 01:00:00 7.6 0 Calma 4 Oeste 0 -- -- 69
2019-04-13 00:00:00 9 3 Oeste 5 Noroeste 0 -- -- 64
2019-04-12 23:00:00 10.1 6 Noroeste 10 Noroeste 0 -- -- 55
2019-04-12 22:00:00 11.5 8 Oeste 10 Oeste 0 -- -- 52
2019-04-12 21:00:00 13.9 7 Noroeste 19 Noroeste 0 -- -- 51
2019-04-12 20:00:00 18.6 8 Norte 16 Noroeste 0 -- -- 38
2019-04-12 19:00:00 19.4 10 Noroeste 20 Noroeste 0 -- -- 33
2019-04-12 18:00:00 19.6 8 Norte 17 Nordeste 0 -- -- 36
2019-04-12 17:00:00 18.4 6 Noroeste 23 Noroeste 0 -- -- 38
2019-04-12 16:00:00 19.4 8 Oeste 17 Sur 0 -- -- 37
2019-04-12 15:00:00 18.7 6 Sudeste 20 Noroeste 0 -- -- 33
2019-04-12 14:00:00 17.8 7 Este 15 Nordeste 0 -- -- 35
2019-04-12 13:00:00 16.8 8 Este 16 Nordeste 0 -- -- 38
2019-04-12 12:00:00 15.4 4 Este 10 Este 0 -- -- 49
2019-04-12 11:00:00 13.5 2 Este 8 Nordeste 0 -- -- 54
2019-04-12 10:00:00 11.3 2 Este 5 Este 0 -- -- 63
2019-04-12 09:00:00 5.8 0 Calma 3 Oeste 0 -- -- 95
2019-04-12 08:00:00 2.1 0 Calma 3 Noroeste 0 -- -- 94
2019-04-12 07:00:00 2.4 2 Oeste 3 Oeste 0 -- -- 91
2019-04-12 06:00:00 3.1 0 Calma 5 Noroeste 0 -- -- 88
2019-04-12 05:00:00 4.2 0 Calma 6 Este 0 -- -- 88
2019-04-12 04:00:00 5.4 3 Este 6 Oeste 0 -- -- 83
2019-04-12 03:00:00 7.8 4 Oeste 7 Oeste 0 -- -- 67
2019-04-12 02:00:00 9.2 4 Noroeste 10 Oeste 0 -- -- 60
2019-04-12 01:00:00 6.8 0 Calma 3 Oeste 0 -- -- 79
2019-04-12 00:00:00 7.3 2 Oeste 5 Sudoeste 0 -- -- 73
2019-04-11 23:00:00 8.6 0 Calma 5 Oeste 0 -- -- 69
2019-04-11 22:00:00 9.9 3 Oeste 9 Oeste 0 -- -- 61
2019-04-11 21:00:00 12.2 7 Oeste 14 Oeste 0 -- -- 54
2019-04-11 20:00:00 16.1 6 Noroeste 13 Nordeste 0 -- -- 43
2019-04-11 19:00:00 16 6 Norte 24 Noroeste 0 -- -- 45
2019-04-11 18:00:00 17.4 10 Norte 28 Nordeste 0 -- -- 37
2019-04-11 17:00:00 16.3 12 Norte 23 Nordeste 0 -- -- 43
2019-04-11 16:00:00 16 12 Noroeste 22 Noroeste 0 -- -- 45
2019-04-11 15:00:00 16.5 9 Noroeste 21 Norte 0 -- -- 44
2019-04-11 14:00:00 15.4 5 Noroeste 19 Norte 0 -- -- 46
2019-04-11 13:00:00 15.1 9 Norte 16 Norte 0 -- -- 51
2019-04-11 12:00:00 14.1 6 Nordeste 15 Norte 0 -- -- 57
2019-04-11 11:00:00 12.8 8 Norte 15 Norte 0 -- -- 59
2019-04-11 10:00:00 11.2 6 Nordeste 10 Nordeste 0 -- -- 69
2019-04-11 09:00:00 7.9 0 Calma 8 Oeste 0 -- -- 83
2019-04-11 08:00:00 5.7 5 Oeste 14 Noroeste 0 -- -- 85
2019-04-11 07:00:00 6.3 9 Noroeste 16 Oeste 0 -- -- 85
2019-04-11 06:00:00 6.9 11 Noroeste 18 Sudoeste 0 -- -- 82
2019-04-11 05:00:00 5.9 7 Sudoeste 16 Sudoeste 0 -- -- 88
2019-04-11 04:00:00 8.3 8 Noroeste 21 Noroeste 0 -- -- 75
2019-04-11 03:00:00 8.8 8 Noroeste 22 Oeste 0 -- -- 73
2019-04-11 02:00:00 8.9 5 Noroeste 22 Noroeste 0 -- -- 75
2019-04-11 01:00:00 9.9 15 Noroeste 33 Oeste 0 -- -- 74
2019-04-11 00:00:00 10.6 24 Oeste 40 Oeste 0 -- -- 73
2019-04-10 23:00:00 11.2 20 Oeste 39 Oeste 0 -- -- 70
2019-04-10 22:00:00 12.3 24 Oeste 38 Oeste 0 -- -- 61
2019-04-10 21:00:00 13.1 22 Noroeste 34 Noroeste 0 -- -- 55
2019-04-10 20:00:00 13.8 19 Noroeste 36 Noroeste 0 -- -- 49
2019-04-10 19:00:00 14.8 22 Noroeste 34 Noroeste 0 -- -- 51
2019-04-10 18:00:00 14.5 19 Noroeste 33 Noroeste 0 -- -- 52
2019-04-10 17:00:00 14.2 20 Noroeste 39 Oeste 0 -- -- 54
2019-04-10 16:00:00 14.4 19 Noroeste 34 Oeste 0 -- -- 54
2019-04-10 15:00:00 13.9 17 Noroeste 32 Noroeste 0 -- -- 54
2019-04-10 14:00:00 13.5 19 Noroeste 34 Noroeste 0 -- -- 56
2019-04-10 13:00:00 11.9 15 Oeste 31 Oeste 0 -- -- 68
2019-04-10 12:00:00 10.8 20 Oeste 32 Oeste 0 -- -- 77
2019-04-10 11:00:00 9.1 15 Noroeste 31 Noroeste 0 -- -- 80
2019-04-10 10:00:00 8.1 15 Noroeste 32 Oeste 0 -- -- 86
2019-04-10 09:00:00 7.4 18 Oeste 31 Oeste 0 -- -- 88
2019-04-10 08:00:00 7.4 9 Oeste 22 Oeste 0 -- -- 91
2019-04-10 07:00:00 7.4 14 Oeste 28 Oeste 0 -- -- 90
2019-04-10 06:00:00 7.4 14 Oeste 25 Oeste 0 -- -- 89
2019-04-10 05:00:00 7.9 16 Oeste 29 Oeste 0 -- -- 87
2019-04-10 04:00:00 7.7 20 Oeste 32 Oeste 0 -- -- 90
2019-04-10 03:00:00 7.5 21 Oeste 28 Oeste 0 -- -- 91
2019-04-10 02:00:00 7.2 8 Oeste 27 Oeste 0 -- -- 89
2019-04-10 01:00:00 8 10 Oeste 26 Oeste 0 -- -- 85
2019-04-10 00:00:00 8.7 16 Oeste 33 Noroeste 0 -- -- 82
2019-04-09 23:00:00 9.2 13 Oeste 34 Oeste 0 -- -- 82
2019-04-09 22:00:00 10.3 21 Oeste 33 Oeste 0 -- -- 77
2019-04-09 21:00:00 10.1 15 Oeste 25 Oeste 0.6 -- -- 81
2019-04-09 20:00:00 11.8 17 Oeste 33 Oeste 0 -- -- 78
2019-04-09 19:00:00 12 21 Oeste 38 Oeste 0 -- -- 72
2019-04-09 18:00:00 12.8 22 Oeste 45 Oeste 0 -- -- 70
2019-04-09 17:00:00 14.6 27 Oeste 48 Oeste 0 -- -- 58
2019-04-09 16:00:00 13.5 32 Oeste 45 Oeste 0 -- -- 59
2019-04-09 15:00:00 13.6 30 Oeste 46 Oeste 0 -- -- 56
2019-04-09 14:00:00 11.6 25 Oeste 49 Oeste 0.2 -- -- 77
2019-04-09 13:00:00 12.1 32 Oeste 44 Oeste 0 -- -- 68
2019-04-09 12:00:00 11.3 35 Oeste 61 Oeste 0 -- -- 71
2019-04-09 11:00:00 10.1 20 Oeste 35 Sudoeste 0 -- -- 78
2019-04-09 10:00:00 8.7 11 Sudoeste 24 Sudoeste 0 -- -- 91
2019-04-09 09:00:00 7.1 6 Sudoeste 12 Sur 0 -- -- 94
2019-04-09 08:00:00 7.1 6 Sudoeste 13 Sudoeste 0 -- -- 94
2019-04-09 07:00:00 7 4 Oeste 12 Noroeste 0 -- -- 95
2019-04-09 06:00:00 6.3 6 Sur 11 Oeste 0 -- -- 96
2019-04-09 05:00:00 6 6 Sudoeste 13 Oeste 0 -- -- 91
2019-04-09 04:00:00 6 11 Sudoeste 19 Sudoeste 0 -- -- 90
2019-04-09 03:00:00 6.6 10 Oeste 21 Sudoeste 0 -- -- 89
2019-04-09 02:00:00 6.5 10 Sudoeste 19 Sudoeste 0 -- -- 91
2019-04-09 01:00:00 7.1 12 Sudoeste 18 Oeste 0 -- -- 90
2019-04-09 00:00:00 8.2 12 Oeste 25 Oeste 0 -- -- 81
2019-04-08 23:00:00 9 21 Oeste 37 Noroeste 0 -- -- 78
2019-04-08 22:00:00 9.6 24 Oeste 49 Oeste 0 -- -- 79
2019-04-08 21:00:00 12.3 14 Oeste 32 Oeste 0 -- -- 58
2019-04-08 20:00:00 14 16 Oeste 31 Noroeste 0 -- -- 54
2019-04-08 19:00:00 14.6 22 Oeste 37 Oeste 0 -- -- 58
2019-04-08 18:00:00 15.5 26 Oeste 41 Oeste 0 -- -- 57
2019-04-08 17:00:00 16.3 24 Oeste 44 Oeste 0 -- -- 55
2019-04-08 16:00:00 15.4 24 Oeste 41 Oeste 0 -- -- 65
2019-04-08 15:00:00 15.7 20 Oeste 35 Sudoeste 0 -- -- 66
2019-04-08 14:00:00 13.9 18 Oeste 33 Oeste 0 -- -- 74
2019-04-08 13:00:00 12.1 10 Oeste 21 Oeste 0.2 -- -- 84
2019-04-08 12:00:00 11.8 15 Oeste 21 Oeste 0 -- -- 88
2019-04-08 11:00:00 10.7 15 Oeste 29 Oeste 1.2 -- -- 93
2019-04-08 10:00:00 10.3 13 Sudoeste 24 Sudoeste 1 -- -- 96
2019-04-08 09:00:00 9.8 9 Sur 19 Sur 0 -- -- 96
2019-04-08 08:00:00 9.5 8 Sur 17 Sur 0.2 -- -- 95
2019-04-08 07:00:00 9.4 6 Sudoeste 11 Sudoeste 0.8 -- -- 94
2019-04-08 06:00:00 9.8 9 Sudoeste 24 Oeste 0.2 -- -- 92
2019-04-08 05:00:00 9.7 10 Sudoeste 18 Sudoeste 0 -- -- 95
2019-04-08 04:00:00 10.2 9 Sur 24 Sudoeste 0 -- -- 95
2019-04-08 03:00:00 10.7 11 Sudoeste 23 Sudoeste 0 -- -- 94
2019-04-08 02:00:00 10.4 15 Sudoeste 23 Sudoeste 1 -- -- 96
2019-04-08 01:00:00 10.5 8 Sur 16 Oeste 0 -- -- 96
2019-04-08 00:00:00 10.5 5 Sudoeste 18 Oeste 0 -- -- 96
2019-04-07 23:00:00 11.4 8 Oeste 20 Oeste 0 -- -- 92
2019-04-07 22:00:00 11.4 12 Oeste 26 Sudoeste 1 -- -- 94
2019-04-07 21:00:00 11.1 13 Sur 26 Sur 0.6 -- -- 95
2019-04-07 20:00:00 11.3 12 Sur 24 Sur 0 -- -- 93
2019-04-07 19:00:00 11.3 14 Sudoeste 24 Sudoeste 0 -- -- 92
2019-04-07 18:00:00 10.8 14 Sudoeste 23 Sur 0.2 -- -- 95
2019-04-07 17:00:00 10.6 17 Sudoeste 26 Sur 0 -- -- 91
2019-04-07 16:00:00 10.5 14 Sudoeste 27 Sudoeste 0.4 -- -- 93
2019-04-07 15:00:00 10.9 17 Sudoeste 33 Sudoeste 0 -- -- 84
2019-04-07 14:00:00 10.6 9 Oeste 21 Oeste 0 -- -- 81
2019-04-07 13:00:00 9.8 10 Oeste 18 Oeste 0.4 -- -- 85
2019-04-07 12:00:00 8.2 12 Sudoeste 22 Oeste 0.2 -- -- 91
2019-04-07 11:00:00 8.4 11 Oeste 30 Oeste 0 -- -- 87
2019-04-07 10:00:00 8.1 7 Sudoeste 22 Oeste 0 -- -- 91
2019-04-07 09:00:00 7.2 11 Sudoeste 25 Sudoeste 0 -- -- 93
2019-04-07 08:00:00 6.9 6 Oeste 18 Sudoeste 0 -- -- 92
2019-04-07 07:00:00 6.9 8 Sudoeste 27 Oeste 0 -- -- 92
2019-04-07 06:00:00 7.1 14 Oeste 38 Oeste 0 -- -- 91
2019-04-07 05:00:00 7 21 Oeste 38 Oeste 0.2 -- -- 91
2019-04-07 04:00:00 7 19 Oeste 43 Oeste 0.2 -- -- 91
2019-04-07 03:00:00 6.8 19 Oeste 35 Oeste 0 -- -- 91
2019-04-07 02:00:00 6.5 14 Sudoeste 26 Sudoeste 0 -- -- 92
2019-04-07 01:00:00 7 13 Oeste 23 Oeste 0 -- -- 92
2019-04-07 00:00:00 6.7 10 Oeste 33 Oeste 0.4 -- -- 93
2019-04-06 23:00:00 7 13 Oeste 26 Oeste 1 -- -- 91
2019-04-06 22:00:00 6.6 13 Oeste 23 Oeste 0.6 -- -- 90
2019-04-06 21:00:00 6.9 13 Noroeste 32 Oeste 0.8 -- -- 90
2019-04-06 20:00:00 6.9 18 Oeste 69 Oeste 1.4 -- -- 82
2019-04-06 19:00:00 10.4 27 Oeste 40 Oeste 0 -- -- 63
2019-04-06 18:00:00 10 31 Oeste 43 Oeste 0 -- -- 73
2019-04-06 17:00:00 8.1 25 Noroeste 62 Oeste 0 -- -- 81
2019-04-06 16:00:00 11.3 26 Oeste 46 Oeste 1.8 -- -- 63
2019-04-06 15:00:00 11.1 25 Oeste 46 Oeste 0 -- -- 64
2019-04-06 14:00:00 10.8 25 Oeste 51 Oeste 0 -- -- 69
2019-04-06 13:00:00 9.7 29 Oeste 59 Oeste 0 -- -- 73
2019-04-06 12:00:00 7.3 26 Oeste 53 Oeste 0.4 -- -- 87
2019-04-06 11:00:00 8.5 22 Oeste 40 Oeste 0 -- -- 76
2019-04-06 10:00:00 7.1 17 Sudoeste 33 Oeste 0 -- -- 86
2019-04-06 09:00:00 6.3 15 Oeste 38 Oeste 0 -- -- 90
2019-04-06 08:00:00 6 13 Oeste 32 Oeste 0 -- -- 92
2019-04-06 07:00:00 6.2 8 Oeste 30 Sudoeste 0 -- -- 90
2019-04-06 06:00:00 6.1 12 Oeste 33 Sudoeste 0 -- -- 92
2019-04-06 05:00:00 5.8 10 Sudoeste 27 Sudoeste 0 -- -- 93
2019-04-06 04:00:00 5.8 12 Sudoeste 28 Oeste 0 -- -- 92
2019-04-06 03:00:00 5.8 13 Oeste 32 Oeste 0 -- -- 90
2019-04-06 02:00:00 4.9 18 Oeste 28 Oeste 0 -- -- 90
2019-04-06 01:00:00 5 18 Oeste 33 Oeste 0 -- -- 89
2019-04-06 00:00:00 5.7 24 Oeste 41 Oeste 0 -- -- 87
2019-04-05 23:00:00 6 12 Oeste 33 Oeste 0 -- -- 89
2019-04-05 22:00:00 5 4 Sudoeste 32 Oeste 0.2 -- -- 91
2019-04-05 21:00:00 5.4 29 Oeste 44 Oeste 1.4 -- -- 87
2019-04-05 20:00:00 8.2 21 Oeste 49 Oeste 0 -- -- 72
2019-04-05 19:00:00 10.4 29 Oeste 45 Oeste 0 -- -- 53
2019-04-05 18:00:00 10.5 24 Oeste 45 Oeste 0 -- -- 53
2019-04-05 17:00:00 10.8 25 Oeste 48 Oeste 0 -- -- 58
2019-04-05 16:00:00 10.1 32 Oeste 47 Oeste 0 -- -- 57
2019-04-05 15:00:00 8.3 24 Oeste 44 Oeste 0 -- -- 68
2019-04-05 14:00:00 7.9 23 Oeste 45 Oeste 0 -- -- 77
2019-04-05 13:00:00 7.8 25 Oeste 42 Oeste 0 -- -- 81
2019-04-05 12:00:00 6.9 22 Oeste 45 Oeste 2.8 -- -- 91
2019-04-05 11:00:00 7.6 11 Sudoeste 23 Oeste 0.6 -- -- 85
2019-04-05 10:00:00 6.9 9 Sur 14 Sur 0.4 -- -- 92
2019-04-05 09:00:00 6.6 6 Sudoeste 28 Oeste 0.8 -- -- 93
2019-04-05 08:00:00 6.7 6 Sudoeste 14 Sudeste 1.2 -- -- 95
2019-04-05 07:00:00 6.5 8 Sur 21 Sur 0.4 -- -- 93
2019-04-05 06:00:00 6.3 12 Sur 23 Sudoeste 1.8 -- -- 90
2019-04-05 05:00:00 6.7 11 Sur 27 Sur 0.6 -- -- 81
2019-04-05 04:00:00 7.3 9 Sudoeste 30 Sudoeste 0 -- -- 75
2019-04-05 03:00:00 8 12 Oeste 35 Noroeste 0 -- -- 70
2019-04-05 02:00:00 8.8 24 Oeste 40 Oeste 0 -- -- 68
2019-04-05 01:00:00 9.5 23 Oeste 38 Oeste 0 -- -- 62
2019-04-05 00:00:00 10.2 13 Oeste 25 Oeste 0 -- -- 50
2019-04-04 23:00:00 11.2 15 Oeste 28 Oeste 0 -- -- 43
2019-04-04 22:00:00 10.7 14 Oeste 21 Oeste 0 -- -- 42
2019-04-04 21:00:00 11.6 10 Oeste 27 Oeste 0 -- -- 39
2019-04-04 20:00:00 14 17 Oeste 33 Oeste 0 -- -- 33
2019-04-04 19:00:00 14.9 16 Oeste 32 Oeste 0 -- -- 28
2019-04-04 18:00:00 15.5 16 Oeste 32 Oeste 0 -- -- 30
2019-04-04 17:00:00 15.8 13 Oeste 31 Oeste 0 -- -- 32
2019-04-04 16:00:00 15.8 10 Noroeste 23 Oeste 0 -- -- 33
2019-04-04 15:00:00 15.1 7 Noroeste 15 Oeste 0 -- -- 34
2019-04-04 14:00:00 13.7 6 Noroeste 13 Este 0 -- -- 35
2019-04-04 13:00:00 12.4 7 Sudeste 21 Sudeste 0 -- -- 38
2019-04-04 12:00:00 11.4 12 Este 25 Nordeste 0 -- -- 41
2019-04-04 11:00:00 10 12 Nordeste 19 Nordeste 0 -- -- 44
2019-04-04 10:00:00 8.5 10 Norte 15 Norte 0 -- -- 48
2019-04-04 09:00:00 5.4 7 Noroeste 16 Noroeste 0 -- -- 60
2019-04-04 08:00:00 4.3 9 Noroeste 19 Noroeste 0 -- -- 60
2019-04-04 07:00:00 4.5 13 Noroeste 21 Noroeste 0 -- -- 61
2019-04-04 06:00:00 4.9 12 Noroeste 30 Noroeste 0 -- -- 61
2019-04-04 05:00:00 6.2 17 Noroeste 36 Noroeste 0 -- -- 55
2019-04-04 04:00:00 7 21 Noroeste 35 Noroeste 0 -- -- 53
2019-04-04 03:00:00 7.4 13 Noroeste 31 Noroeste 0 -- -- 51
2019-04-04 02:00:00 8.6 19 Noroeste 33 Noroeste 0 -- -- 46
2019-04-04 01:00:00 8.5 11 Noroeste 22 Norte 0 -- -- 49
2019-04-04 00:00:00 8.6 9 Noroeste 16 Noroeste 0 -- -- 51
2019-04-03 23:00:00 9.6 8 Noroeste 14 Noroeste 0 -- -- 49
2019-04-03 22:00:00 10.6 6 Noroeste 23 Oeste 0 -- -- 47
2019-04-03 21:00:00 12.6 13 Oeste 28 Noroeste 0 -- -- 50
2019-04-03 20:00:00 14.7 18 Noroeste 33 Oeste 0 -- -- 48
2019-04-03 19:00:00 15.8 22 Noroeste 33 Noroeste 0 -- -- 46
2019-04-03 18:00:00 16.1 20 Noroeste 37 Oeste 0 -- -- 49
2019-04-03 17:00:00 16.4 26 Oeste 40 Oeste 0 -- -- 48
2019-04-03 16:00:00 16.9 22 Oeste 37 Oeste 0 -- -- 51
2019-04-03 15:00:00 16.9 21 Oeste 35 Oeste 0 -- -- 48
2019-04-03 14:00:00 16 21 Oeste 37 Oeste 0 -- -- 46
2019-04-03 13:00:00 15.3 20 Oeste 29 Oeste 0 -- -- 52
2019-04-03 12:00:00 13.5 16 Oeste 26 Oeste 0 -- -- 57
2019-04-03 11:00:00 11.9 19 Oeste 28 Oeste 0 -- -- 67
2019-04-03 10:00:00 10.4 23 Sudoeste 28 Sudoeste 0 -- -- 76
2019-04-03 09:00:00 9.2 17 Sudoeste 23 Oeste 0 -- -- 86
2019-04-03 08:00:00 8.2 15 Sudoeste 21 Sudoeste 0 -- -- 89
2019-04-03 07:00:00 8.4 9 Oeste 21 Oeste 0 -- -- 91
2019-04-03 06:00:00 7.3 2 Sudeste 6 Sudeste 0 -- -- 93
2019-04-03 05:00:00 8.3 0 Calma 21 Sudoeste 0 -- -- 89
2019-04-03 04:00:00 9.9 0 Calma 9 Sudoeste 0 -- -- 83
2019-04-03 03:00:00 10.5 3 Sudoeste 17 Sudoeste 0 -- -- 79
2019-04-03 02:00:00 10.3 13 Sudoeste 17 Sudoeste 0 -- -- 78
2019-04-03 01:00:00 10.6 2 Sudeste 7 Oeste 0 -- -- 78
2019-04-03 00:00:00 11.4 4 Noroeste 13 Oeste 0 -- -- 75
2019-04-02 23:00:00 10.5 3 Sudeste 5 Sudeste 0 -- -- 75
2019-04-02 22:00:00 11.3 3 Noroeste 9 Noroeste 0 -- -- 72
2019-04-02 21:00:00 13.1 8 Oeste 16 Oeste 0 -- -- 65
2019-04-02 20:00:00 17.3 12 Noroeste 22 Oeste 0 -- -- 49
2019-04-02 19:00:00 17.3 13 Noroeste 22 Norte 0 -- -- 51
2019-04-02 18:00:00 18.2 12 Noroeste 21 Noroeste 0 -- -- 52
2019-04-02 17:00:00 18.8 11 Norte 19 Norte 0 -- -- 49
2019-04-02 16:00:00 17.4 5 Noroeste 15 Oeste 0 -- -- 51
2019-04-02 15:00:00 17.2 5 Oeste 13 Oeste 0 -- -- 58
2019-04-02 14:00:00 15.2 3 Norte 13 Noroeste 0 -- -- 68
2019-04-02 13:00:00 14.5 4 Noroeste 8 Noroeste 0 -- -- 79
2019-04-02 12:00:00 11.1 2 Sur 7 Sudoeste 0 -- -- 96
2019-04-02 11:00:00 9.2 3 Oeste 8 Sudoeste 0 -- -- 99
2019-04-02 10:00:00 8.5 4 Sudoeste 7 Sudoeste 0 -- -- 99
2019-04-02 09:00:00 8.2 0 Calma 5 Sudeste 0 -- -- 99
2019-04-02 08:00:00 8.3 4 Sur 6 Sur 0.2 -- -- 99
2019-04-02 07:00:00 8.6 0 Calma 4 Sudoeste 0 -- -- 99
2019-04-02 06:00:00 6 0 Calma 5 Sur 0 -- -- 98
2019-04-02 05:00:00 6 0 Calma 4 Sudoeste 0 -- -- 97
2019-04-02 04:00:00 6.6 2 Oeste 3 Oeste 0 -- -- 95
2019-04-02 03:00:00 8.1 3 Oeste 4 Noroeste 0 -- -- 96
2019-04-02 02:00:00 8.9 0 Calma 10 Sudoeste 0 -- -- 95
2019-04-02 01:00:00 9.9 9 Sudoeste 15 Sudoeste 0 -- -- 93
2019-04-02 00:00:00 9.5 11 Sudoeste 16 Sudoeste 0 -- -- 94
2019-04-01 23:00:00 10.4 0 Calma 10 Sudoeste 0 -- -- 89
2019-04-01 22:00:00 11.5 6 Sudoeste 9 Oeste 0 -- -- 91
2019-04-01 21:00:00 11.2 9 Oeste 14 Oeste 0 -- -- 88
2019-04-01 20:00:00 11.5 12 Noroeste 34 Oeste 5.4 -- -- 90
2019-04-01 19:00:00 15.7 5 Noroeste 27 Sudeste 0 -- -- 59
2019-04-01 18:00:00 17.7 11 Sudeste 26 Sudeste 0 -- -- 49
2019-04-01 17:00:00 16.8 18 Sudeste 28 Sur 0 -- -- 58
2019-04-01 16:00:00 16.3 9 Sudeste 21 Sur 0 -- -- 55
2019-04-01 15:00:00 14.9 11 Sur 33 Sur 0 -- -- 64
2019-04-01 14:00:00 15.5 6 Sudoeste 16 Oeste 0 -- -- 63
2019-04-01 13:00:00 15.2 5 Sur 17 Sur 0 -- -- 64
2019-04-01 12:00:00 15 9 Sudoeste 19 Sur 0 -- -- 66
2019-04-01 11:00:00 13.1 10 Sudoeste 18 Sudoeste 0 -- -- 78
2019-04-01 10:00:00 12 7 Sur 13 Sur 0 -- -- 87
2019-04-01 09:00:00 11.1 3 Sudeste 7 Sudeste 0 -- -- 91
2019-04-01 08:00:00 10.5 0 Calma 3 Nordeste 0 -- -- 93
2019-04-01 07:00:00 9.6 0 Calma 4 Sudeste 0 -- -- 95
2019-04-01 06:00:00 10.5 0 Calma 13 Sudeste 0 -- -- 91
2019-04-01 05:00:00 9.3 3 Oeste 4 Noroeste 0 -- -- 95
2019-04-01 04:00:00 9.1 0 Calma 5 Sur 0 -- -- 93
2019-04-01 03:00:00 10 0 Calma 5 Norte 0 -- -- 91
2019-04-01 02:00:00 10.1 2 Oeste 11 Sur 0 -- -- 89
2019-04-01 01:00:00 11 0 Calma 9 Sur 0 -- -- 88
2019-04-01 00:00:00 10.9 2 Oeste 5 Oeste 0 -- -- 90
2019-03-31 23:00:00 11 0 Calma 3 Sur 0 -- -- 86
2019-03-31 22:00:00 11.2 3 Sudoeste 9 Este 0 -- -- 80
2019-03-31 21:00:00 12.2 9 Sudoeste 20 Sudoeste 0 -- -- 73
2019-03-31 20:00:00 12.5 19 Sudoeste 27 Sudoeste 0 -- -- 78
2019-03-31 19:00:00 13.8 17 Sudoeste 22 Sudoeste 0 -- -- 75
2019-03-31 18:00:00 15.1 4 Norte 23 Noroeste 0 -- -- 59
2019-03-31 17:00:00 15.3 17 Noroeste 26 Nordeste 0 -- -- 67
2019-03-31 16:00:00 18.1 18 Nordeste 29 Norte 0 -- -- 50
2019-03-31 15:00:00 18.3 10 Nordeste 21 Nordeste 0 -- -- 52
2019-03-31 14:00:00 16.7 9 Sudoeste 21 Sudoeste 0 -- -- 64
2019-03-31 13:00:00 15.7 9 Sur 19 Sur 0 -- -- 67
2019-03-31 12:00:00 14.2 9 Sur 16 Sur 0 -- -- 72
2019-03-31 11:00:00 13.8 4 Sur 13 Este 0 -- -- 76
2019-03-31 10:00:00 10.2 0 Calma 8 Sudoeste 0 -- -- 91
2019-03-31 09:00:00 8.9 7 Sudoeste 15 Sudoeste 0 -- -- 92
2019-03-31 08:00:00 9.8 6 Oeste 14 Sudoeste 0 -- -- 88
2019-03-31 07:00:00 9.7 5 Sur 14 Sur 0 -- -- 89
2019-03-31 06:00:00 10.4 9 Este 14 Nordeste 0 -- -- 87
2019-03-31 05:00:00 10.6 3 Este 12 Sur 0 -- -- 82
2019-03-31 03:00:00 11 3 Sudeste 10 Oeste 0 -- -- 78
2019-03-31 01:00:00 12 2 Sudeste 16 Sudoeste 0 -- -- 76
2019-03-31 00:00:00 12.2 12 Sudoeste 17 Sudoeste 0 -- -- 69
2019-03-30 23:00:00 13.5 10 Sur 19 Sur 0 -- -- 63
2019-03-30 22:00:00 13.1 2 Sur 8 Este 0 -- -- 67
2019-03-30 21:00:00 13 2 Sudoeste 7 Sudeste 0 -- -- 63
2019-03-30 20:00:00 17.2 5 Sudeste 15 Sudeste 0 -- -- 48
2019-03-30 19:00:00 19.1 7 Nordeste 13 Este 0 -- -- 41
2019-03-30 18:00:00 19.8 8 Nordeste 19 Norte 0 -- -- 40
2019-03-30 17:00:00 20.2 11 Nordeste 25 Nordeste 0 -- -- 39
2019-03-30 16:00:00 20.8 11 Este 28 Este 0 -- -- 38
2019-03-30 15:00:00 20.1 12 Este 28 Este 0 -- -- 40
2019-03-30 14:00:00 19.5 13 Este 31 Este 0 -- -- 41
2019-03-30 13:00:00 18.6 14 Este 29 Este 0 -- -- 44
2019-03-30 12:00:00 16.7 13 Este 27 Este 0 -- -- 50
2019-03-30 11:00:00 15.1 16 Este 26 Este 0 -- -- 56
2019-03-30 10:00:00 13.5 14 Este 20 Este 0 -- -- 62
2019-03-30 09:00:00 10.7 6 Este 8 Este 0 -- -- 76
2019-03-30 08:00:00 5.8 2 Oeste 5 Norte 0 -- -- 96
2019-03-30 07:00:00 4.9 2 Oeste 5 Noroeste 0 -- -- 90
2019-03-30 06:00:00 5.9 2 Noroeste 4 Oeste 0 -- -- 89
2019-03-30 05:00:00 6.8 3 Oeste 5 Norte 0 -- -- 86
2019-03-30 04:00:00 8.3 0 Calma 13 Sur 0 -- -- 82
2019-03-30 03:00:00 6.3 0 Calma 8 Sudeste 0 -- -- 85
2019-03-30 02:00:00 6.3 3 Noroeste 6 Norte 0 -- -- 78
2019-03-30 01:00:00 7.2 2 Noroeste 7 Noroeste 0 -- -- 74
2019-03-30 00:00:00 8.9 4 Sur 13 Sur 0 -- -- 70
2019-03-29 23:00:00 9.6 0 Calma 9 Noroeste 0 -- -- 69
2019-03-29 22:00:00 10.8 4 Noroeste 21 Sur 0 -- -- 58
2019-03-29 21:00:00 12.5 10 Sur 14 Sudeste 0 -- -- 46
2019-03-29 20:00:00 11.9 8 Sur 11 Sudoeste 0 -- -- 46
2019-03-29 19:00:00 17.9 7 Sur 19 Sudeste 0 -- -- 30
2019-03-29 18:00:00 19.1 9 Sur 19 Sudeste 0 -- -- 26
2019-03-29 17:00:00 19.5 11 Sudeste 23 Sudeste 0 -- -- 26
2019-03-29 16:00:00 19.2 8 Sudeste 23 Sudeste 0 -- -- 26
2019-03-29 15:00:00 19 6 Sudeste 23 Este 0 -- -- 26
2019-03-29 14:00:00 17.9 8 Este 28 Este 0 -- -- 26
2019-03-29 13:00:00 17 13 Este 36 Sudeste 0 -- -- 27
2019-03-29 12:00:00 16.1 12 Sudeste 25 Este 0 -- -- 28
2019-03-29 11:00:00 14 7 Este 18 Este 0 -- -- 34
2019-03-29 10:00:00 11.2 8 Este 14 Este 0 -- -- 40
2019-03-29 09:00:00 7.7 2 Este 5 Este 0 -- -- 62
2019-03-29 08:00:00 1.4 0 Calma 3 Noroeste 0 -- -- 95
2019-03-29 07:00:00 -0.4 2 Noroeste 5 Oeste 0 -- -- 91
2019-03-29 06:00:00 -0.2 2 Noroeste 4 Sudeste 0 -- -- 91
2019-03-29 05:00:00 1.1 0 Calma 5 Noroeste 0 -- -- 85
2019-03-29 04:00:00 1.6 3 Oeste 5 Noroeste 0 -- -- 82
2019-03-29 03:00:00 2.4 0 Calma 6 Oeste 0 -- -- 76
2019-03-29 02:00:00 3.1 2 Noroeste 9 Noroeste 0 -- -- 71
2019-03-29 01:00:00 3 5 Oeste 8 Noroeste 0 -- -- 69
2019-03-29 00:00:00 4 2 Oeste 6 Oeste 0 -- -- 65
2019-03-28 23:00:00 6.5 0 Calma 5 Nordeste 0 -- -- 54
2019-03-28 22:00:00 7.1 5 Sudoeste 12 Sudoeste 0 -- -- 52
2019-03-28 21:00:00 7.6 7 Sudoeste 9 Sudoeste 0 -- -- 48
2019-03-28 20:00:00 10.9 9 Sur 14 Sudeste 0 -- -- 38
2019-03-28 19:00:00 17.9 11 Sur 30 Este 0 -- -- 21
2019-03-28 18:00:00 19 12 Este 32 Este 0 -- -- 19
2019-03-28 17:00:00 19.1 15 Sudeste 36 Sudeste 0 -- -- 17
2019-03-28 16:00:00 19.1 24 Este 39 Este 0 -- -- 17
2019-03-28 15:00:00 18.5 20 Este 33 Sudeste 0 -- -- 18
2019-03-28 14:00:00 17.9 15 Sudeste 34 Sudeste 0 -- -- 22
2019-03-28 13:00:00 16.7 13 Sudeste 32 Sudeste 0 -- -- 25
2019-03-28 12:00:00 15.5 19 Sudeste 29 Sudeste 0 -- -- 31
2019-03-28 11:00:00 14 15 Este 22 Nordeste 0 -- -- 42
2019-03-28 10:00:00 12.2 10 Este 18 Este 0 -- -- 51
2019-03-28 09:00:00 8.1 0 Calma 3 Este 0 -- -- 75
2019-03-28 08:00:00 1.4 2 Oeste 5 Oeste 0 -- -- 96
2019-03-28 07:00:00 0.3 3 Noroeste 4 Noroeste 0 -- -- 94
2019-03-28 06:00:00 0.9 0 Calma 3 Noroeste 0 -- -- 91
2019-03-28 05:00:00 1.5 2 Noroeste 4 Noroeste 0 -- -- 91
2019-03-28 04:00:00 2.4 4 Oeste 6 Oeste 0 -- -- 87
2019-03-28 03:00:00 2.8 0 Calma 8 Oeste 0 -- -- 82
2019-03-28 02:00:00 4.4 2 Noroeste 12 Noroeste 0 -- -- 66
2019-03-28 01:00:00 4.6 0 Calma 5 Sudeste 0 -- -- 64
2019-03-28 00:00:00 7 3 Sudeste 11 Este 0 -- -- 45
2019-03-27 23:00:00 5.9 0 Calma 7 Este 0 -- -- 53
2019-03-27 22:00:00 11.5 3 Sudeste 22 Nordeste 0 -- -- 31
2019-03-27 21:00:00 14.7 11 Nordeste 23 Nordeste 0 -- -- 24
2019-03-27 20:00:00 15.8 11 Nordeste 30 Nordeste 0 -- -- 24
2019-03-27 19:00:00 18 17 Nordeste 31 Nordeste 0 -- -- 22
2019-03-27 18:00:00 18.9 21 Nordeste 32 Nordeste 0 -- -- 22
2019-03-27 17:00:00 19.5 23 Nordeste 39 Nordeste 0 -- -- 20
2019-03-27 16:00:00 19.4 25 Nordeste 44 Nordeste 0 -- -- 19
2019-03-27 15:00:00 19.4 26 Este 46 Nordeste 0 -- -- 23
2019-03-27 14:00:00 18.2 27 Nordeste 44 Nordeste 0 -- -- 25
2019-03-27 13:00:00 16.8 23 Nordeste 35 Nordeste 0 -- -- 31
2019-03-27 12:00:00 14.3 18 Nordeste 30 Nordeste 0 -- -- 39
2019-03-27 11:00:00 13.1 17 Nordeste 31 Este 0 -- -- 44
2019-03-27 10:00:00 10.8 19 Este 27 Este 0 -- -- 54
2019-03-27 09:00:00 8.3 7 Este 18 Este 0 -- -- 66
2019-03-27 08:00:00 4.9 2 Sudeste 8 Este 0 -- -- 81
2019-03-27 07:00:00 4.9 2 Nordeste 9 Nordeste 0 -- -- 77
2019-03-27 06:00:00 6.3 3 Este 12 Este 0 -- -- 70
2019-03-27 05:00:00 6.7 3 Norte 11 Este 0 -- -- 72
2019-03-27 04:00:00 6.1 2 Sur 6 Nordeste 0 -- -- 77
2019-03-27 03:00:00 5.6 3 Este 5 Sudeste 0 -- -- 77
2019-03-27 02:00:00 6 0 Calma 4 Noroeste 0 -- -- 73
2019-03-27 01:00:00 8.8 3 Sur 5 Sudeste 0 -- -- 63
2019-03-27 00:00:00 11.7 3 Sudoeste 14 Sudeste 0 -- -- 53
2019-03-26 23:00:00 14.6 8 Este 23 Este 0 -- -- 45
2019-03-26 22:00:00 16.3 16 Este 44 Nordeste 0 -- -- 40
2019-03-26 21:00:00 18.2 23 Nordeste 37 Nordeste 0 -- -- 35
2019-03-26 20:00:00 19.5 15 Nordeste 35 Nordeste 0 -- -- 32
2019-03-26 19:00:00 21.9 23 Nordeste 37 Este 0 -- -- 26
2019-03-26 18:00:00 23.4 18 Este 30 Este 0 -- -- 21
2019-03-26 17:00:00 23.2 16 Este 31 Este 0 -- -- 24
2019-03-26 16:00:00 22.6 19 Este 37 Este 0 -- -- 24
2019-03-26 15:00:00 22.7 19 Nordeste 34 Este 0 -- -- 25
2019-03-26 14:00:00 21.7 20 Nordeste 32 Nordeste 0 -- -- 28
2019-03-26 13:00:00 19.9 22 Nordeste 34 Este 0 -- -- 31
2019-03-26 12:00:00 17.4 19 Nordeste 32 Nordeste 0 -- -- 35
2019-03-26 11:00:00 15.5 22 Este 29 Este 0 -- -- 38
2019-03-26 10:00:00 13.4 15 Este 28 Este 0 -- -- 41
2019-03-26 09:00:00 11.3 14 Este 23 Este 0 -- -- 42
2019-03-26 08:00:00 8.2 4 Este 11 Este 0 -- -- 48
2019-03-26 07:00:00 8.8 10 Este 19 Este 0 -- -- 47
2019-03-26 06:00:00 5.2 4 Sudeste 8 Sudeste 0 -- -- 64
2019-03-26 05:00:00 6.6 2 Sudeste 6 Este 0 -- -- 55
2019-03-26 04:00:00 6.5 0 Calma 6 Sudeste 0 -- -- 55
2019-03-26 03:00:00 8.1 4 Sudeste 6 Sudeste 0 -- -- 47
2019-03-26 02:00:00 5.8 0 Calma 7 Este 0 -- -- 64
2019-03-26 01:00:00 8.6 3 Sur 7 Sudeste 0 -- -- 50
2019-03-26 00:00:00 9.8 2 Noroeste 4 Noroeste 0 -- -- 44
2019-03-25 23:00:00 8.2 3 Noroeste 4 Noroeste 0 -- -- 53
2019-03-25 22:00:00 8.9 2 Sudeste 5 Sudeste 0 -- -- 55
2019-03-25 21:00:00 14.8 0 Calma 17 Nordeste 0 -- -- 30
2019-03-25 20:00:00 18.5 12 Nordeste 28 Nordeste 0 -- -- 24
2019-03-25 19:00:00 20.4 19 Nordeste 35 Nordeste 0 -- -- 24
2019-03-25 18:00:00 21.2 17 Nordeste 35 Nordeste 0 -- -- 25
2019-03-25 17:00:00 22 22 Nordeste 36 Nordeste 0 -- -- 25
2019-03-25 16:00:00 21.8 21 Este 41 Nordeste 0 -- -- 25
2019-03-25 15:00:00 21.6 24 Este 40 Este 0 -- -- 25
2019-03-25 14:00:00 21 23 Este 37 Nordeste 0 -- -- 28
2019-03-25 13:00:00 19.8 24 Este 34 Este 0 -- -- 33
2019-03-25 12:00:00 18.3 19 Este 31 Nordeste 0 -- -- 37
2019-03-25 11:00:00 15.6 19 Este 32 Este 0 -- -- 46
2019-03-25 10:00:00 12.5 16 Este 28 Este 0 -- -- 53
2019-03-25 09:00:00 10.7 9 Este 18 Este 0 -- -- 63
2019-03-25 08:00:00 6.3 3 Sudeste 5 Sudeste 0 -- -- 87
2019-03-25 07:00:00 3 0 Calma 4 Noroeste 0 -- -- 93
2019-03-25 06:00:00 3.1 0 Calma 6 Noroeste 0 -- -- 90
2019-03-25 05:00:00 3.7 3 Noroeste 5 Noroeste 0 -- -- 89
2019-03-25 04:00:00 4.3 0 Calma 3 Sur 0 -- -- 89
2019-03-25 03:00:00 4.8 0 Calma 4 Noroeste 0 -- -- 86
2019-03-25 02:00:00 5.2 2 Noroeste 9 Oeste 0 -- -- 88
2019-03-25 01:00:00 6 2 Oeste 4 Oeste 0 -- -- 83
2019-03-25 00:00:00 7 0 Calma 4 Oeste 0 -- -- 78
2019-03-24 23:00:00 7.3 2 Noroeste 5 Noroeste 0 -- -- 79
2019-03-24 22:00:00 9.4 4 Noroeste 8 Noroeste 0 -- -- 72
2019-03-24 21:00:00 12.2 5 Sur 8 Este 0 -- -- 61
2019-03-24 20:00:00 16 6 Este 21 Este 0 -- -- 48
2019-03-24 19:00:00 18.4 14 Este 22 Nordeste 0 -- -- 41
2019-03-24 18:00:00 19.5 9 Sudeste 28 Este 0 -- -- 39
2019-03-24 17:00:00 20 14 Este 32 Este 0 -- -- 38
2019-03-24 16:00:00 20.3 14 Sudeste 32 Este 0 -- -- 36
2019-03-24 15:00:00 20.5 15 Este 35 Este 0 -- -- 37
2019-03-24 14:00:00 19.3 16 Este 39 Este 0 -- -- 38
2019-03-24 13:00:00 18.3 16 Sudeste 32 Este 0 -- -- 41
2019-03-24 12:00:00 16.3 17 Este 31 Este 0 -- -- 47
2019-03-24 11:00:00 13.9 18 Este 28 Este 0 -- -- 54
2019-03-24 10:00:00 11.7 13 Nordeste 21 Este 0 -- -- 61
2019-03-24 09:00:00 9.1 14 Este 21 Este 0 -- -- 72
2019-03-24 08:00:00 4.4 0 Calma 8 Nordeste 0 -- -- 92
2019-03-24 07:00:00 2.8 0 Calma 5 Nordeste 0 -- -- 92
2019-03-24 06:00:00 4 0 Calma 12 Este 0 -- -- 93
2019-03-24 05:00:00 3.7 0 Calma 5 Sudeste 0 -- -- 87
2019-03-24 04:00:00 5.1 3 Sudeste 6 Nordeste 0 -- -- 85
2019-03-24 03:00:00 5.3 0 Calma 4 Noroeste 0 -- -- 85
2019-03-24 02:00:00 6.2 0 Calma 9 Sudeste 0 -- -- 78
2019-03-24 01:00:00 9.7 5 Este 19 Este 0 -- -- 68
2019-03-24 00:00:00 10.1 8 Este 15 Este 0 -- -- 66
2019-03-23 23:00:00 9.3 3 Este 11 Este 0 -- -- 67
2019-03-23 22:00:00 13.2 9 Este 27 Este 0 -- -- 54
2019-03-23 21:00:00 14.2 10 Este 22 Este 0 -- -- 54
2019-03-23 20:00:00 15.5 20 Este 40 Este 0 -- -- 51
2019-03-23 19:00:00 17.7 16 Este 26 Este 0 -- -- 38
2019-03-23 18:00:00 18.3 19 Este 33 Este 0 -- -- 36
2019-03-23 17:00:00 18.9 19 Este 34 Nordeste 0 -- -- 35
2019-03-23 16:00:00 20 20 Este 41 Este 0 -- -- 34
2019-03-23 15:00:00 19.2 25 Este 45 Este 0 -- -- 36
2019-03-23 14:00:00 19.2 28 Este 42 Este 0 -- -- 34
2019-03-23 13:00:00 18.1 25 Este 44 Este 0 -- -- 35
2019-03-23 12:00:00 17.4 30 Este 47 Este 0 -- -- 37
2019-03-23 11:00:00 14.3 19 Este 27 Este 0 -- -- 50
2019-03-23 10:00:00 11.5 18 Este 28 Este 0 -- -- 58
2019-03-23 09:00:00 9.1 6 Sudeste 10 Este 0 -- -- 64
2019-03-23 08:00:00 3 0 Calma 3 Este 0 -- -- 84
2019-03-23 07:00:00 3.4 0 Calma 6 Este 0 -- -- 79
2019-03-23 06:00:00 1.4 0 Calma 4 Oeste 0 -- -- 86
2019-03-23 05:00:00 1.6 0 Calma 2 Noroeste 0 -- -- 86
2019-03-23 04:00:00 3.1 3 Noroeste 4 Noroeste 0 -- -- 81
2019-03-23 03:00:00 2.3 0 Calma 5 Noroeste 0 -- -- 82
2019-03-23 02:00:00 3.2 2 Oeste 4 Oeste 0 -- -- 81
2019-03-23 01:00:00 5.7 0 Calma 4 Oeste 0 -- -- 71
2019-03-23 00:00:00 9.8 4 Sudeste 10 Sudeste 0 -- -- 53
2019-03-22 23:00:00 13 6 Sudeste 24 Este 0 -- -- 45
2019-03-22 22:00:00 13.7 14 Nordeste 24 Nordeste 0 -- -- 42
2019-03-22 21:00:00 10.1 6 Noroeste 9 Noroeste 0 -- -- 54
2019-03-22 20:00:00 12.1 4 Noroeste 13 Nordeste 0 -- -- 49
2019-03-22 19:00:00 16.4 14 Nordeste 30 Este 0 -- -- 34
2019-03-22 18:00:00 17.4 18 Nordeste 26 Nordeste 0 -- -- 34
2019-03-22 17:00:00 17.9 19 Nordeste 36 Nordeste 0 -- -- 34
2019-03-22 16:00:00 17.7 19 Nordeste 34 Nordeste 0 -- -- 32
2019-03-22 15:00:00 17.2 18 Este 35 Nordeste 0 -- -- 31
2019-03-22 14:00:00 16.2 18 Este 33 Este 0 -- -- 32
2019-03-22 13:00:00 15.5 17 Este 34 Nordeste 0 -- -- 30
2019-03-22 12:00:00 13.5 15 Este 32 Este 0 -- -- 38
2019-03-22 11:00:00 11.2 19 Este 28 Este 0 -- -- 43
2019-03-22 10:00:00 8.9 19 Este 27 Nordeste 0 -- -- 49
2019-03-22 09:00:00 6.8 10 Este 15 Este 0 -- -- 58
2019-03-22 08:00:00 -0.2 3 Sur 4 Sudeste 0 -- -- 92
2019-03-22 07:00:00 -1.1 2 Noroeste 4 Noroeste 0 -- -- 90
2019-03-22 06:00:00 -0.6 3 Noroeste 4 Noroeste 0 -- -- 89
2019-03-22 05:00:00 0.1 0 Calma 4 Noroeste 0 -- -- 85
2019-03-22 04:00:00 0.8 3 Oeste 5 Oeste 0 -- -- 80
2019-03-22 03:00:00 1.4 3 Noroeste 5 Noroeste 0 -- -- 77
2019-03-22 02:00:00 3.4 4 Sudeste 10 Sur 0 -- -- 65
2019-03-22 01:00:00 2.7 0 Calma 3 Noroeste 0 -- -- 72
2019-03-22 00:00:00 5.2 0 Calma 3 Sudoeste 0 -- -- 55
2019-03-21 23:00:00 6.4 3 Sudeste 10 Norte 0 -- -- 56
2019-03-21 22:00:00 10.4 8 Nordeste 16 Este 0 -- -- 39
2019-03-21 21:00:00 8.1 5 Noroeste 8 Norte 0 -- -- 51
2019-03-21 20:00:00 10.1 3 Norte 17 Nordeste 0 -- -- 46
2019-03-21 19:00:00 14.8 15 Nordeste 27 Nordeste 0 -- -- 30
2019-03-21 18:00:00 15.6 17 Nordeste 32 Este 0 -- -- 30
2019-03-21 17:00:00 16.2 17 Este 40 Este 0 -- -- 28
2019-03-21 16:00:00 16.2 16 Este 33 Este 0 -- -- 29
2019-03-21 15:00:00 16.1 19 Este 36 Este 0 -- -- 27
2019-03-21 14:00:00 15.6 21 Este 39 Nordeste 0 -- -- 30
2019-03-21 13:00:00 15.3 19 Este 37 Este 0 -- -- 30
2019-03-21 12:00:00 14.3 18 Este 33 Este 0 -- -- 32
2019-03-21 11:00:00 12 16 Este 27 Nordeste 0 -- -- 49
2019-03-21 10:00:00 9.7 13 Este 21 Nordeste 0 -- -- 64
2019-03-21 09:00:00 6.3 0 Calma 3 Este 0 -- -- 85
2019-03-21 08:00:00 0.4 0 Calma 4 Noroeste 0 -- -- 94
2019-03-21 07:00:00 0 3 Noroeste 5 Noroeste 0 -- -- 92
2019-03-21 06:00:00 -0.3 0 Calma 3 Noroeste 0 -- -- 91
2019-03-21 05:00:00 0.4 0 Calma 4 Noroeste 0 -- -- 89
2019-03-21 04:00:00 1.1 3 Noroeste 4 Noroeste 0 -- -- 83
2019-03-21 03:00:00 4.6 4 Sudeste 6 Sudeste 0 -- -- 69
2019-03-21 02:00:00 2.7 2 Sudoeste 4 Sudoeste 0 -- -- 80
2019-03-21 01:00:00 3.4 0 Calma 4 Este 0 -- -- 76
2019-03-21 00:00:00 4.8 0 Calma 3 Sudoeste 0 -- -- 74
2019-03-20 23:00:00 5.6 2 Oeste 6 Noroeste 0 -- -- 68
2019-03-20 22:00:00 7.6 6 Noroeste 9 Noroeste 0 -- -- 58
2019-03-20 21:00:00 8 6 Noroeste 9 Noroeste 0 -- -- 59
2019-03-20 20:00:00 11.4 4 Nordeste 18 Nordeste 0 -- -- 48
2019-03-20 19:00:00 14.6 13 Nordeste 22 Este 0 -- -- 36
2019-03-20 18:00:00 15.6 16 Nordeste 27 Nordeste 0 -- -- 35
2019-03-20 17:00:00 16.1 13 Nordeste 28 Nordeste 0 -- -- 36
2019-03-20 16:00:00 15.8 10 Este 27 Nordeste 0 -- -- 37
2019-03-20 15:00:00 15.3 15 Nordeste 26 Este 0 -- -- 37
2019-03-20 14:00:00 14.5 14 Este 29 Este 0 -- -- 40
2019-03-20 13:00:00 13.8 16 Este 34 Nordeste 0 -- -- 42
2019-03-20 12:00:00 12.2 21 Este 33 Este 0 -- -- 47
2019-03-20 11:00:00 10.6 22 Nordeste 40 Este 0 -- -- 51
2019-03-20 10:00:00 8.8 27 Nordeste 36 Nordeste 0 -- -- 53
2019-03-20 09:00:00 7.7 19 Nordeste 34 Nordeste 0 -- -- 56
2019-03-20 08:00:00 6 10 Nordeste 18 Nordeste 0 -- -- 61
2019-03-20 07:00:00 3.9 5 Noroeste 12 Noroeste 0 -- -- 69
2019-03-20 06:00:00 4.7 4 Este 11 Este 0 -- -- 66
2019-03-20 05:00:00 4.5 3 Nordeste 7 Oeste 0 -- -- 67
2019-03-20 04:00:00 4.9 2 Noroeste 6 Oeste 0 -- -- 68
2019-03-20 03:00:00 6.5 3 Sudeste 8 Este 0 -- -- 63
2019-03-20 02:00:00 4.5 3 Nordeste 7 Nordeste 0 -- -- 72
2019-03-20 01:00:00 6.7 3 Oeste 11 Oeste 0 -- -- 65
2019-03-20 00:00:00 5.5 0 Calma 15 Sudeste 0 -- -- 72
2019-03-19 23:00:00 6.4 3 Oeste 8 Oeste 0 -- -- 67
2019-03-19 22:00:00 7.6 5 Sudoeste 9 Sudoeste 0 -- -- 62
2019-03-19 21:00:00 8.1 5 Noroeste 9 Norte 0 -- -- 63
2019-03-19 20:00:00 12.5 9 Norte 24 Norte 0 -- -- 44
2019-03-19 19:00:00 15.2 16 Norte 33 Nordeste 0 -- -- 36
2019-03-19 18:00:00 16.6 9 Norte 34 Este 0 -- -- 34
2019-03-19 17:00:00 16.8 14 Nordeste 34 Nordeste 0 -- -- 35
2019-03-19 16:00:00 16.8 16 Nordeste 34 Nordeste 0 -- -- 35
2019-03-19 15:00:00 16.3 16 Nordeste 35 Norte 0 -- -- 36
2019-03-19 14:00:00 16.1 21 Nordeste 35 Nordeste 0 -- -- 36
2019-03-19 13:00:00 14.7 18 Nordeste 35 Nordeste 0 -- -- 38
2019-03-19 12:00:00 13.8 21 Nordeste 38 Nordeste 0 -- -- 38
2019-03-19 11:00:00 12.5 17 Nordeste 32 Nordeste 0 -- -- 43
2019-03-19 10:00:00 10.9 16 Este 32 Este 0 -- -- 42
2019-03-19 09:00:00 8.4 3 Este 10 Este 0 -- -- 50
2019-03-19 08:00:00 2.3 0 Calma 2 Oeste 0 -- -- 84
2019-03-19 07:00:00 1.1 0 Calma 4 Noroeste 0 -- -- 79
2019-03-19 06:00:00 1.6 3 Noroeste 5 Oeste 0 -- -- 76
2019-03-19 05:00:00 1.2 0 Calma 4 Noroeste 0 -- -- 81
2019-03-19 04:00:00 2.3 0 Calma 4 Noroeste 0 -- -- 78
2019-03-19 03:00:00 2.6 3 Noroeste 5 Oeste 0 -- -- 74
2019-03-19 02:00:00 3.1 2 Noroeste 5 Noroeste 0 -- -- 75
2019-03-19 01:00:00 3.2 2 Oeste 3 Oeste 0 -- -- 73
2019-03-19 00:00:00 5.7 3 Oeste 5 Oeste 0 -- -- 61